Aérodrome :
LOGIN :

S'inscrire | Disclaimer

   EN    FR    IT 

 










Légende :    VFR   VFR Marginal   IFR   IFR Intensif   IFR Très Intensif
Visi : 
Plafond : 
>= 8 km
>= 3000ft
5 à 8 km
1000 à 3000 ft
1500m à 5 km
500 à 1000 ft
800 à 1500m
200 à 500 ft
< 800m
< 200 ft
Symboles :   Orages  Brouillard  Fortes neiges  Fortes précipitations  Vent > 20 kt
SIGMETs :   Divers  Orages  Givrage  Turbulence  Onde Orograph.  Cendres Volcan.







- Altitude de l'aérodrome : 219 ft
- Code IATA : DNR
- Voir les cartes d'approche


LFRD - Dinard

DERNIER METAR :
  • 181900Z AUTO 21005KT 170V240 2800 -DZ BR OVC003 08/08 Q1020 TEMPO DZ

METARs EXPIRÉS :
  • 181830Z AUTO 19005KT 3300 -DZ BR OVC002 09/08 Q1020 TEMPO 1500 DZ BR
  • 181800Z AUTO 18007KT 4600 -DZ BR OVC003 09/08 Q1020 TEMPO 1500 DZ BR
  • 181730Z AUTO 19004KT 160V220 4100 BR BKN004 OVC010 09/08 Q1020 TEMPO 1500 DZ BR
  • 181700Z AUTO 18005KT 4500 BR BKN004 OVC009 09/08 Q1020 TEMPO 1500 DZ BR
  • 181630Z AUTO 18007KT 4400 -RA BR BKN003 OVC009 09/08 Q1020 TEMPO 1500 DZ BR

TAF TAF LFRD
Valide du 18 à 18h jusqu'au 19 à 18h UTC


181700Z 1818/1918 19008KT 4000 BR OVC010
TEMPO 1818/1918 1500 DZ BR BKN002
BECMG 1904/1906 30007KT
BECMG 1915/1918 31013KT
ATIS : +33 2 99 16 81 50
Pas de NOTAMs connus pour ce terrain.



MET'MAP, la Météo Aéronautique d'un coup d'oeil ! - Copyright ORBIFLY Décembre 2007 - Disclaimer

ORBIFLY MET'MAP TEAM :

Programmation & Développement : Alexandra Zaïnal
Conception & Développement : Baudouin d'Aumeries
Co-Programmation & Développement : Marc-Olivier Méhu
Soutien technique & logistique : Manuel Goepfert

Contact : metmap@orbifly.com




SOURCES & CREDITS :

   NOAA